sensor_id;sensor_type;location;lat;lon;timestamp;P1;durP1;ratioP1;P2;durP2;ratioP2
36137;SDS011;22194;50.046;21.954;2022-10-16T00:01:48;28.30;;;14.90;;
36137;SDS011;22194;50.046;21.954;2022-10-16T00:04:16;28.40;;;14.80;;
36137;SDS011;22194;50.046;21.954;2022-10-16T00:06:43;25.90;;;14.60;;
36137;SDS011;22194;50.046;21.954;2022-10-16T00:09:12;27.30;;;14.80;;
36137;SDS011;22194;50.046;21.954;2022-10-16T00:11:44;28.00;;;15.20;;
36137;SDS011;22194;50.046;21.954;2022-10-16T00:14:15;27.30;;;15.50;;
36137;SDS011;22194;50.046;21.954;2022-10-16T00:16:43;27.60;;;14.70;;
36137;SDS011;22194;50.046;21.954;2022-10-16T00:19:11;25.60;;;14.40;;
36137;SDS011;22194;50.046;21.954;2022-10-16T00:21:43;25.90;;;14.70;;
36137;SDS011;22194;50.046;21.954;2022-10-16T00:24:10;28.60;;;13.80;;
36137;SDS011;22194;50.046;21.954;2022-10-16T00:26:42;26.90;;;14.80;;
36137;SDS011;22194;50.046;21.954;2022-10-16T00:29:14;26.70;;;14.00;;
36137;SDS011;22194;50.046;21.954;2022-10-16T00:31:41;26.50;;;13.90;;
36137;SDS011;22194;50.046;21.954;2022-10-16T00:34:09;28.30;;;14.70;;
36137;SDS011;22194;50.046;21.954;2022-10-16T00:36:37;25.10;;;14.20;;
36137;SDS011;22194;50.046;21.954;2022-10-16T00:39:08;30.20;;;14.00;;
36137;SDS011;22194;50.046;21.954;2022-10-16T00:41:36;26.00;;;14.30;;
36137;SDS011;22194;50.046;21.954;2022-10-16T00:44:40;25.80;;;14.50;;
36137;SDS011;22194;50.046;21.954;2022-10-16T00:47:28;23.60;;;13.10;;
36137;SDS011;22194;50.046;21.954;2022-10-16T00:50:18;26.70;;;14.40;;
36137;SDS011;22194;50.046;21.954;2022-10-16T00:52:56;27.50;;;15.50;;
36137;SDS011;22194;50.046;21.954;2022-10-16T00:55:27;27.00;;;14.80;;
36137;SDS011;22194;50.046;21.954;2022-10-16T00:57:59;27.00;;;14.30;;
36137;SDS011;22194;50.046;21.954;2022-10-16T01:00:30;28.50;;;15.20;;
36137;SDS011;22194;50.046;21.954;2022-10-16T01:03:02;23.60;;;13.20;;
36137;SDS011;22194;50.046;21.954;2022-10-16T01:06:01;27.00;;;15.20;;
36137;SDS011;22194;50.046;21.954;2022-10-16T01:09:07;27.10;;;14.50;;
36137;SDS011;22194;50.046;21.954;2022-10-16T01:11:48;23.80;;;13.90;;
36137;SDS011;22194;50.046;21.954;2022-10-16T01:14:37;25.10;;;14.10;;
36137;SDS011;22194;50.046;21.954;2022-10-16T01:20:42;28.90;;;15.00;;
36137;SDS011;22194;50.046;21.954;2022-10-16T01:29:18;25.20;;;12.90;;
36137;SDS011;22194;50.046;21.954;2022-10-16T01:31:54;21.90;;;12.70;;
36137;SDS011;22194;50.046;21.954;2022-10-16T01:34:30;25.40;;;14.10;;
36137;SDS011;22194;50.046;21.954;2022-10-16T01:37:07;25.20;;;13.80;;
36137;SDS011;22194;50.046;21.954;2022-10-16T01:39:44;23.20;;;13.20;;
36137;SDS011;22194;50.046;21.954;2022-10-16T01:42:22;27.40;;;13.60;;
36137;SDS011;22194;50.046;21.954;2022-10-16T01:44:54;26.50;;;14.00;;
36137;SDS011;22194;50.046;21.954;2022-10-16T01:47:23;28.20;;;13.70;;
36137;SDS011;22194;50.046;21.954;2022-10-16T01:49:56;27.10;;;13.50;;
36137;SDS011;22194;50.046;21.954;2022-10-16T01:52:29;25.50;;;13.90;;
36137;SDS011;22194;50.046;21.954;2022-10-16T01:55:03;24.90;;;13.10;;
36137;SDS011;22194;50.046;21.954;2022-10-16T01:57:37;24.90;;;14.90;;
36137;SDS011;22194;50.046;21.954;2022-10-16T02:00:15;25.80;;;12.80;;
36137;SDS011;22194;50.046;21.954;2022-10-16T02:02:48;25.00;;;13.00;;
36137;SDS011;22194;50.046;21.954;2022-10-16T02:07:59;28.10;;;13.40;;
36137;SDS011;22194;50.046;21.954;2022-10-16T02:10:32;25.50;;;13.40;;
36137;SDS011;22194;50.046;21.954;2022-10-16T02:13:18;25.20;;;13.70;;
36137;SDS011;22194;50.046;21.954;2022-10-16T02:15:54;26.90;;;13.80;;
36137;SDS011;22194;50.046;21.954;2022-10-16T02:18:26;27.60;;;13.60;;
36137;SDS011;22194;50.046;21.954;2022-10-16T02:21:14;30.60;;;13.60;;
36137;SDS011;22194;50.046;21.954;2022-10-16T02:29:12;24.90;;;13.20;;
36137;SDS011;22194;50.046;21.954;2022-10-16T02:31:48;25.20;;;12.40;;
36137;SDS011;22194;50.046;21.954;2022-10-16T02:34:32;27.20;;;14.30;;
36137;SDS011;22194;50.046;21.954;2022-10-16T02:37:05;31.00;;;13.00;;
36137;SDS011;22194;50.046;21.954;2022-10-16T02:39:37;24.10;;;12.00;;
36137;SDS011;22194;50.046;21.954;2022-10-16T02:42:13;26.20;;;13.20;;
36137;SDS011;22194;50.046;21.954;2022-10-16T02:44:45;25.90;;;13.00;;
36137;SDS011;22194;50.046;21.954;2022-10-16T02:47:14;25.50;;;13.00;;
36137;SDS011;22194;50.046;21.954;2022-10-16T02:49:41;22.30;;;12.40;;
36137;SDS011;22194;50.046;21.954;2022-10-16T02:52:09;25.20;;;12.80;;
36137;SDS011;22194;50.046;21.954;2022-10-16T02:54:37;27.00;;;13.20;;
36137;SDS011;22194;50.046;21.954;2022-10-16T02:57:04;26.30;;;12.40;;
36137;SDS011;22194;50.046;21.954;2022-10-16T02:59:32;22.10;;;11.20;;
36137;SDS011;22194;50.046;21.954;2022-10-16T03:02:00;25.50;;;12.10;;
36137;SDS011;22194;50.046;21.954;2022-10-16T03:04:27;22.80;;;11.70;;
36137;SDS011;22194;50.046;21.954;2022-10-16T03:06:55;26.40;;;12.30;;
36137;SDS011;22194;50.046;21.954;2022-10-16T03:09:23;25.30;;;12.80;;
36137;SDS011;22194;50.046;21.954;2022-10-16T03:11:51;24.80;;;12.50;;
36137;SDS011;22194;50.046;21.954;2022-10-16T03:14:23;22.10;;;11.70;;
36137;SDS011;22194;50.046;21.954;2022-10-16T03:16:51;25.10;;;12.20;;
36137;SDS011;22194;50.046;21.954;2022-10-16T03:19:19;24.90;;;12.50;;
36137;SDS011;22194;50.046;21.954;2022-10-16T03:21:47;23.10;;;11.90;;
36137;SDS011;22194;50.046;21.954;2022-10-16T03:24:18;23.90;;;12.10;;
36137;SDS011;22194;50.046;21.954;2022-10-16T03:26:46;27.20;;;12.60;;
36137;SDS011;22194;50.046;21.954;2022-10-16T03:29:17;26.00;;;12.10;;
36137;SDS011;22194;50.046;21.954;2022-10-16T03:31:45;25.70;;;13.00;;
36137;SDS011;22194;50.046;21.954;2022-10-16T03:34:13;24.40;;;12.70;;
36137;SDS011;22194;50.046;21.954;2022-10-16T03:36:41;21.90;;;12.40;;
36137;SDS011;22194;50.046;21.954;2022-10-16T03:39:08;25.80;;;13.20;;
36137;SDS011;22194;50.046;21.954;2022-10-16T03:41:36;25.20;;;13.20;;
36137;SDS011;22194;50.046;21.954;2022-10-16T03:44:04;27.30;;;13.20;;
36137;SDS011;22194;50.046;21.954;2022-10-16T03:46:31;23.90;;;12.00;;
36137;SDS011;22194;50.046;21.954;2022-10-16T03:48:59;25.10;;;12.20;;
36137;SDS011;22194;50.046;21.954;2022-10-16T03:51:32;26.00;;;12.10;;
36137;SDS011;22194;50.046;21.954;2022-10-16T03:54:01;25.40;;;12.50;;
36137;SDS011;22194;50.046;21.954;2022-10-16T03:56:28;23.80;;;12.10;;
36137;SDS011;22194;50.046;21.954;2022-10-16T03:58:56;22.90;;;12.50;;
36137;SDS011;22194;50.046;21.954;2022-10-16T04:01:24;28.40;;;12.60;;
36137;SDS011;22194;50.046;21.954;2022-10-16T04:03:52;25.70;;;12.90;;
36137;SDS011;22194;50.046;21.954;2022-10-16T04:06:20;23.90;;;12.80;;
36137;SDS011;22194;50.046;21.954;2022-10-16T04:08:47;23.40;;;11.70;;
36137;SDS011;22194;50.046;21.954;2022-10-16T04:11:15;27.40;;;12.60;;
36137;SDS011;22194;50.046;21.954;2022-10-16T04:13:43;24.20;;;11.40;;
36137;SDS011;22194;50.046;21.954;2022-10-16T04:16:14;21.30;;;11.00;;
36137;SDS011;22194;50.046;21.954;2022-10-16T04:18:42;25.40;;;11.20;;
36137;SDS011;22194;50.046;21.954;2022-10-16T04:21:10;25.90;;;11.80;;
36137;SDS011;22194;50.046;21.954;2022-10-16T04:23:37;24.70;;;12.00;;
36137;SDS011;22194;50.046;21.954;2022-10-16T04:26:09;23.40;;;11.90;;
36137;SDS011;22194;50.046;21.954;2022-10-16T04:28:39;23.00;;;10.80;;
36137;SDS011;22194;50.046;21.954;2022-10-16T04:31:11;23.60;;;11.70;;
36137;SDS011;22194;50.046;21.954;2022-10-16T04:33:40;23.10;;;11.80;;
36137;SDS011;22194;50.046;21.954;2022-10-16T04:36:13;22.40;;;10.80;;
36137;SDS011;22194;50.046;21.954;2022-10-16T04:38:41;24.30;;;11.50;;
36137;SDS011;22194;50.046;21.954;2022-10-16T04:41:09;21.10;;;11.40;;
36137;SDS011;22194;50.046;21.954;2022-10-16T04:43:37;21.90;;;11.30;;
36137;SDS011;22194;50.046;21.954;2022-10-16T04:46:04;25.90;;;12.30;;
36137;SDS011;22194;50.046;21.954;2022-10-16T04:48:34;23.50;;;11.20;;
36137;SDS011;22194;50.046;21.954;2022-10-16T04:51:02;22.10;;;11.50;;
36137;SDS011;22194;50.046;21.954;2022-10-16T04:53:29;23.80;;;11.70;;
36137;SDS011;22194;50.046;21.954;2022-10-16T04:56:01;23.00;;;12.00;;
36137;SDS011;22194;50.046;21.954;2022-10-16T04:58:29;23.00;;;12.00;;
36137;SDS011;22194;50.046;21.954;2022-10-16T05:00:59;23.60;;;11.70;;
36137;SDS011;22194;50.046;21.954;2022-10-16T05:03:27;22.90;;;11.70;;
36137;SDS011;22194;50.046;21.954;2022-10-16T05:05:54;25.10;;;12.30;;
36137;SDS011;22194;50.046;21.954;2022-10-16T05:08:22;22.80;;;12.00;;
36137;SDS011;22194;50.046;21.954;2022-10-16T05:10:50;26.30;;;12.50;;
36137;SDS011;22194;50.046;21.954;2022-10-16T05:13:18;22.70;;;11.50;;
36137;SDS011;22194;50.046;21.954;2022-10-16T05:15:48;24.00;;;12.10;;
36137;SDS011;22194;50.046;21.954;2022-10-16T05:18:16;25.30;;;11.80;;
36137;SDS011;22194;50.046;21.954;2022-10-16T05:20:44;22.00;;;12.10;;
36137;SDS011;22194;50.046;21.954;2022-10-16T05:23:12;23.80;;;11.90;;
36137;SDS011;22194;50.046;21.954;2022-10-16T05:25:51;23.50;;;11.00;;
36137;SDS011;22194;50.046;21.954;2022-10-16T05:28:26;20.80;;;9.90;;
36137;SDS011;22194;50.046;21.954;2022-10-16T05:30:58;24.00;;;11.20;;
36137;SDS011;22194;50.046;21.954;2022-10-16T05:33:30;22.00;;;11.30;;
36137;SDS011;22194;50.046;21.954;2022-10-16T05:36:02;24.70;;;11.80;;
36137;SDS011;22194;50.046;21.954;2022-10-16T05:38:35;21.20;;;11.00;;
36137;SDS011;22194;50.046;21.954;2022-10-16T05:41:07;23.30;;;11.70;;
36137;SDS011;22194;50.046;21.954;2022-10-16T05:43:35;24.10;;;11.80;;
36137;SDS011;22194;50.046;21.954;2022-10-16T05:46:04;24.70;;;10.40;;
36137;SDS011;22194;50.046;21.954;2022-10-16T05:48:35;24.70;;;12.10;;
36137;SDS011;22194;50.046;21.954;2022-10-16T05:51:04;22.70;;;11.10;;
36137;SDS011;22194;50.046;21.954;2022-10-16T05:53:37;26.60;;;11.00;;
36137;SDS011;22194;50.046;21.954;2022-10-16T05:56:14;23.20;;;11.00;;
36137;SDS011;22194;50.046;21.954;2022-10-16T05:58:46;23.00;;;11.60;;
36137;SDS011;22194;50.046;21.954;2022-10-16T06:01:15;24.60;;;11.30;;
36137;SDS011;22194;50.046;21.954;2022-10-16T06:03:55;23.60;;;10.90;;
36137;SDS011;22194;50.046;21.954;2022-10-16T06:06:24;22.50;;;10.90;;
36137;SDS011;22194;50.046;21.954;2022-10-16T06:08:58;25.50;;;11.10;;
36137;SDS011;22194;50.046;21.954;2022-10-16T06:11:31;16.00;;;8.40;;
36137;SDS011;22194;50.046;21.954;2022-10-16T06:14:05;21.50;;;10.60;;
36137;SDS011;22194;50.046;21.954;2022-10-16T06:16:39;22.10;;;11.00;;
36137;SDS011;22194;50.046;21.954;2022-10-16T06:19:07;23.00;;;10.30;;
36137;SDS011;22194;50.046;21.954;2022-10-16T06:21:43;23.40;;;11.70;;
36137;SDS011;22194;50.046;21.954;2022-10-16T06:24:15;22.70;;;10.40;;
36137;SDS011;22194;50.046;21.954;2022-10-16T06:26:46;24.00;;;10.70;;
36137;SDS011;22194;50.046;21.954;2022-10-16T06:29:14;25.90;;;10.90;;
36137;SDS011;22194;50.046;21.954;2022-10-16T06:31:42;23.80;;;10.50;;
36137;SDS011;22194;50.046;21.954;2022-10-16T06:34:10;25.60;;;10.70;;
36137;SDS011;22194;50.046;21.954;2022-10-16T06:36:42;22.40;;;10.40;;
36137;SDS011;22194;50.046;21.954;2022-10-16T06:39:14;19.40;;;9.90;;
36137;SDS011;22194;50.046;21.954;2022-10-16T06:41:42;21.20;;;10.10;;
36137;SDS011;22194;50.046;21.954;2022-10-16T06:44:09;23.00;;;10.70;;
36137;SDS011;22194;50.046;21.954;2022-10-16T06:46:37;20.30;;;9.40;;
36137;SDS011;22194;50.046;21.954;2022-10-16T06:49:05;23.80;;;10.20;;
36137;SDS011;22194;50.046;21.954;2022-10-16T06:51:37;21.80;;;10.60;;
36137;SDS011;22194;50.046;21.954;2022-10-16T06:54:10;20.00;;;9.70;;
36137;SDS011;22194;50.046;21.954;2022-10-16T06:56:38;21.30;;;9.20;;
36137;SDS011;22194;50.046;21.954;2022-10-16T06:59:06;23.40;;;9.60;;
36137;SDS011;22194;50.046;21.954;2022-10-16T07:01:33;19.40;;;10.00;;
36137;SDS011;22194;50.046;21.954;2022-10-16T07:04:01;21.80;;;9.80;;
36137;SDS011;22194;50.046;21.954;2022-10-16T07:06:30;22.90;;;9.70;;
36137;SDS011;22194;50.046;21.954;2022-10-16T07:09:03;19.30;;;9.10;;
36137;SDS011;22194;50.046;21.954;2022-10-16T07:11:36;22.10;;;9.70;;
36137;SDS011;22194;50.046;21.954;2022-10-16T07:14:18;21.00;;;9.40;;
36137;SDS011;22194;50.046;21.954;2022-10-16T07:16:50;22.70;;;9.50;;
36137;SDS011;22194;50.046;21.954;2022-10-16T07:19:18;19.80;;;9.00;;
36137;SDS011;22194;50.046;21.954;2022-10-16T07:21:46;20.70;;;9.50;;
36137;SDS011;22194;50.046;21.954;2022-10-16T07:24:14;20.00;;;9.70;;
36137;SDS011;22194;50.046;21.954;2022-10-16T07:26:46;18.90;;;9.30;;
36137;SDS011;22194;50.046;21.954;2022-10-16T07:29:15;23.40;;;10.40;;
36137;SDS011;22194;50.046;21.954;2022-10-16T07:31:47;20.60;;;9.10;;
36137;SDS011;22194;50.046;21.954;2022-10-16T07:34:19;20.70;;;9.40;;
36137;SDS011;22194;50.046;21.954;2022-10-16T07:36:50;22.10;;;10.20;;
36137;SDS011;22194;50.046;21.954;2022-10-16T07:39:18;19.70;;;9.20;;
36137;SDS011;22194;50.046;21.954;2022-10-16T07:41:46;21.50;;;9.90;;
36137;SDS011;22194;50.046;21.954;2022-10-16T07:44:15;20.60;;;9.60;;
36137;SDS011;22194;50.046;21.954;2022-10-16T07:46:46;21.90;;;9.00;;
36137;SDS011;22194;50.046;21.954;2022-10-16T07:49:14;19.10;;;8.70;;
36137;SDS011;22194;50.046;21.954;2022-10-16T07:51:44;19.60;;;8.60;;
36137;SDS011;22194;50.046;21.954;2022-10-16T07:54:13;21.40;;;8.80;;
36137;SDS011;22194;50.046;21.954;2022-10-16T07:56:41;19.00;;;8.70;;
36137;SDS011;22194;50.046;21.954;2022-10-16T07:59:14;20.30;;;8.90;;
36137;SDS011;22194;50.046;21.954;2022-10-16T08:01:41;20.20;;;9.20;;
36137;SDS011;22194;50.046;21.954;2022-10-16T08:04:10;20.90;;;9.70;;
36137;SDS011;22194;50.046;21.954;2022-10-16T08:06:42;20.70;;;9.20;;
36137;SDS011;22194;50.046;21.954;2022-10-16T08:09:11;22.00;;;8.70;;
36137;SDS011;22194;50.046;21.954;2022-10-16T08:11:38;19.50;;;8.80;;
36137;SDS011;22194;50.046;21.954;2022-10-16T08:14:09;21.10;;;9.50;;
36137;SDS011;22194;50.046;21.954;2022-10-16T08:16:37;20.70;;;8.70;;
36137;SDS011;22194;50.046;21.954;2022-10-16T08:19:04;16.70;;;7.90;;
36137;SDS011;22194;50.046;21.954;2022-10-16T08:21:32;18.50;;;8.40;;
36137;SDS011;22194;50.046;21.954;2022-10-16T08:24:00;18.70;;;8.30;;
36137;SDS011;22194;50.046;21.954;2022-10-16T08:26:28;17.80;;;8.70;;
36137;SDS011;22194;50.046;21.954;2022-10-16T08:28:58;18.60;;;8.30;;
36137;SDS011;22194;50.046;21.954;2022-10-16T08:31:26;17.50;;;7.70;;
36137;SDS011;22194;50.046;21.954;2022-10-16T08:33:58;18.10;;;8.10;;
36137;SDS011;22194;50.046;21.954;2022-10-16T08:36:26;15.60;;;7.40;;
36137;SDS011;22194;50.046;21.954;2022-10-16T08:38:58;19.70;;;8.40;;
36137;SDS011;22194;50.046;21.954;2022-10-16T08:44:44;19.40;;;8.00;;
36137;SDS011;22194;50.046;21.954;2022-10-16T08:47:49;17.90;;;8.10;;
36137;SDS011;22194;50.046;21.954;2022-10-16T08:50:29;18.40;;;7.20;;
36137;SDS011;22194;50.046;21.954;2022-10-16T08:53:01;17.80;;;7.50;;
36137;SDS011;22194;50.046;21.954;2022-10-16T08:55:37;17.00;;;7.20;;
36137;SDS011;22194;50.046;21.954;2022-10-16T08:58:20;18.70;;;7.90;;
36137;SDS011;22194;50.046;21.954;2022-10-16T09:01:01;19.50;;;7.80;;
36137;SDS011;22194;50.046;21.954;2022-10-16T09:03:55;15.30;;;6.90;;
36137;SDS011;22194;50.046;21.954;2022-10-16T09:06:57;16.00;;;7.40;;
36137;SDS011;22194;50.046;21.954;2022-10-16T09:12:37;16.80;;;7.20;;
36137;SDS011;22194;50.046;21.954;2022-10-16T09:15:31;15.70;;;7.10;;
36137;SDS011;22194;50.046;21.954;2022-10-16T09:18:38;14.90;;;7.10;;
36137;SDS011;22194;50.046;21.954;2022-10-16T09:21:14;17.40;;;6.80;;
36137;SDS011;22194;50.046;21.954;2022-10-16T09:23:48;16.90;;;6.80;;
36137;SDS011;22194;50.046;21.954;2022-10-16T09:26:18;19.20;;;7.70;;
36137;SDS011;22194;50.046;21.954;2022-10-16T09:28:55;18.50;;;7.10;;
36137;SDS011;22194;50.046;21.954;2022-10-16T09:31:23;16.40;;;7.00;;
36137;SDS011;22194;50.046;21.954;2022-10-16T09:33:55;18.10;;;7.30;;
36137;SDS011;22194;50.046;21.954;2022-10-16T09:36:36;16.40;;;7.90;;
36137;SDS011;22194;50.046;21.954;2022-10-16T09:39:09;16.30;;;7.40;;
36137;SDS011;22194;50.046;21.954;2022-10-16T09:41:42;17.20;;;7.80;;
36137;SDS011;22194;50.046;21.954;2022-10-16T09:47:11;15.70;;;7.60;;
36137;SDS011;22194;50.046;21.954;2022-10-16T09:49:51;17.70;;;7.50;;
36137;SDS011;22194;50.046;21.954;2022-10-16T09:52:27;19.30;;;8.10;;
36137;SDS011;22194;50.046;21.954;2022-10-16T09:55:02;17.60;;;7.70;;
36137;SDS011;22194;50.046;21.954;2022-10-16T10:00:19;17.30;;;7.70;;
36137;SDS011;22194;50.046;21.954;2022-10-16T10:02:47;15.30;;;7.60;;
36137;SDS011;22194;50.046;21.954;2022-10-16T10:05:20;21.10;;;8.10;;
36137;SDS011;22194;50.046;21.954;2022-10-16T10:08:01;17.70;;;7.30;;
36137;SDS011;22194;50.046;21.954;2022-10-16T10:10:41;17.30;;;8.00;;
36137;SDS011;22194;50.046;21.954;2022-10-16T10:13:17;21.30;;;7.30;;
36137;SDS011;22194;50.046;21.954;2022-10-16T10:15:50;15.40;;;7.20;;
36137;SDS011;22194;50.046;21.954;2022-10-16T10:18:22;17.60;;;8.00;;
36137;SDS011;22194;50.046;21.954;2022-10-16T10:21:01;17.40;;;7.20;;
36137;SDS011;22194;50.046;21.954;2022-10-16T10:23:54;20.30;;;7.50;;
36137;SDS011;22194;50.046;21.954;2022-10-16T10:26:24;22.00;;;7.80;;
36137;SDS011;22194;50.046;21.954;2022-10-16T10:40:45;15.40;;;7.30;;
36137;SDS011;22194;50.046;21.954;2022-10-16T10:43:04;16.20;;;6.70;;
36137;SDS011;22194;50.046;21.954;2022-10-16T10:45:42;15.40;;;7.10;;
36137;SDS011;22194;50.046;21.954;2022-10-16T10:51:19;16.20;;;6.60;;
36137;SDS011;22194;50.046;21.954;2022-10-16T10:59:50;17.20;;;6.70;;
36137;SDS011;22194;50.046;21.954;2022-10-16T11:02:48;18.00;;;8.00;;
36137;SDS011;22194;50.046;21.954;2022-10-16T11:05:28;17.70;;;8.00;;
36137;SDS011;22194;50.046;21.954;2022-10-16T11:08:16;17.20;;;7.80;;
36137;SDS011;22194;50.046;21.954;2022-10-16T11:10:53;18.30;;;7.20;;
36137;SDS011;22194;50.046;21.954;2022-10-16T11:13:31;13.80;;;7.20;;
36137;SDS011;22194;50.046;21.954;2022-10-16T11:16:15;16.80;;;6.90;;
36137;SDS011;22194;50.046;21.954;2022-10-16T11:18:57;16.30;;;5.90;;
36137;SDS011;22194;50.046;21.954;2022-10-16T11:21:35;18.10;;;7.80;;
36137;SDS011;22194;50.046;21.954;2022-10-16T11:24:40;17.40;;;6.40;;
36137;SDS011;22194;50.046;21.954;2022-10-16T11:27:42;17.20;;;6.40;;
36137;SDS011;22194;50.046;21.954;2022-10-16T11:30:26;16.10;;;7.00;;
36137;SDS011;22194;50.046;21.954;2022-10-16T11:35:46;17.90;;;6.90;;
36137;SDS011;22194;50.046;21.954;2022-10-16T11:41:24;16.60;;;7.30;;
36137;SDS011;22194;50.046;21.954;2022-10-16T11:44:16;17.60;;;6.90;;
36137;SDS011;22194;50.046;21.954;2022-10-16T11:49:53;16.80;;;6.80;;
36137;SDS011;22194;50.046;21.954;2022-10-16T11:52:32;15.80;;;7.00;;
36137;SDS011;22194;50.046;21.954;2022-10-16T11:55:15;15.80;;;7.30;;
36137;SDS011;22194;50.046;21.954;2022-10-16T11:57:52;16.60;;;7.00;;
36137;SDS011;22194;50.046;21.954;2022-10-16T12:00:40;15.50;;;7.30;;
36137;SDS011;22194;50.046;21.954;2022-10-16T12:03:20;15.30;;;6.50;;
36137;SDS011;22194;50.046;21.954;2022-10-16T12:09:02;14.70;;;6.40;;
36137;SDS011;22194;50.046;21.954;2022-10-16T12:11:46;15.10;;;7.20;;
36137;SDS011;22194;50.046;21.954;2022-10-16T12:17:34;16.80;;;7.40;;
36137;SDS011;22194;50.046;21.954;2022-10-16T12:20:28;18.70;;;7.60;;
36137;SDS011;22194;50.046;21.954;2022-10-16T12:23:05;14.60;;;6.70;;
36137;SDS011;22194;50.046;21.954;2022-10-16T12:25:54;15.90;;;7.10;;
36137;SDS011;22194;50.046;21.954;2022-10-16T12:28:26;17.20;;;7.30;;
36137;SDS011;22194;50.046;21.954;2022-10-16T12:31:01;13.60;;;6.10;;
36137;SDS011;22194;50.046;21.954;2022-10-16T12:33:33;15.30;;;6.70;;
36137;SDS011;22194;50.046;21.954;2022-10-16T12:36:16;14.10;;;6.80;;
36137;SDS011;22194;50.046;21.954;2022-10-16T12:38:59;21.30;;;6.70;;
36137;SDS011;22194;50.046;21.954;2022-10-16T12:41:32;17.10;;;7.20;;
36137;SDS011;22194;50.046;21.954;2022-10-16T12:44:25;14.80;;;6.60;;
36137;SDS011;22194;50.046;21.954;2022-10-16T12:46:56;14.90;;;6.70;;
36137;SDS011;22194;50.046;21.954;2022-10-16T12:49:31;17.70;;;6.60;;
36137;SDS011;22194;50.046;21.954;2022-10-16T12:52:04;15.90;;;6.90;;
36137;SDS011;22194;50.046;21.954;2022-10-16T12:54:55;15.70;;;7.00;;
36137;SDS011;22194;50.046;21.954;2022-10-16T13:00:24;13.80;;;6.60;;
36137;SDS011;22194;50.046;21.954;2022-10-16T13:26:00;24.10;;;7.40;;
36137;SDS011;22194;50.046;21.954;2022-10-16T13:28:40;15.40;;;6.90;;
36137;SDS011;22194;50.046;21.954;2022-10-16T13:31:19;18.00;;;6.80;;
36137;SDS011;22194;50.046;21.954;2022-10-16T13:33:52;14.80;;;6.50;;
36137;SDS011;22194;50.046;21.954;2022-10-16T13:36:25;15.00;;;6.40;;
36137;SDS011;22194;50.046;21.954;2022-10-16T13:41:33;18.00;;;7.50;;
36137;SDS011;22194;50.046;21.954;2022-10-16T13:44:01;15.70;;;6.20;;
36137;SDS011;22194;50.046;21.954;2022-10-16T13:46:30;20.50;;;10.00;;
36137;SDS011;22194;50.046;21.954;2022-10-16T13:49:05;19.50;;;7.20;;
36137;SDS011;22194;50.046;21.954;2022-10-16T13:51:40;17.10;;;7.30;;
36137;SDS011;22194;50.046;21.954;2022-10-16T13:54:25;15.50;;;6.20;;
36137;SDS011;22194;50.046;21.954;2022-10-16T13:57:04;19.40;;;6.90;;
36137;SDS011;22194;50.046;21.954;2022-10-16T13:59:54;18.60;;;7.20;;
36137;SDS011;22194;50.046;21.954;2022-10-16T14:02:36;17.10;;;6.80;;
36137;SDS011;22194;50.046;21.954;2022-10-16T14:05:08;16.60;;;6.40;;
36137;SDS011;22194;50.046;21.954;2022-10-16T14:07:38;16.10;;;6.80;;
36137;SDS011;22194;50.046;21.954;2022-10-16T14:10:18;11.80;;;6.10;;
36137;SDS011;22194;50.046;21.954;2022-10-16T14:13:03;16.80;;;6.50;;
36137;SDS011;22194;50.046;21.954;2022-10-16T14:15:48;18.60;;;6.80;;
36137;SDS011;22194;50.046;21.954;2022-10-16T14:18:22;13.60;;;6.20;;
36137;SDS011;22194;50.046;21.954;2022-10-16T14:21:05;13.90;;;6.10;;
36137;SDS011;22194;50.046;21.954;2022-10-16T14:23:40;18.00;;;6.50;;
36137;SDS011;22194;50.046;21.954;2022-10-16T14:26:13;14.30;;;6.50;;
36137;SDS011;22194;50.046;21.954;2022-10-16T14:28:44;15.60;;;6.50;;
36137;SDS011;22194;50.046;21.954;2022-10-16T14:31:32;16.70;;;6.80;;
36137;SDS011;22194;50.046;21.954;2022-10-16T14:34:04;15.90;;;6.70;;
36137;SDS011;22194;50.046;21.954;2022-10-16T14:37:18;21.60;;;5.90;;
36137;SDS011;22194;50.046;21.954;2022-10-16T14:39:57;14.20;;;6.70;;
36137;SDS011;22194;50.046;21.954;2022-10-16T14:42:25;18.90;;;9.10;;
36137;SDS011;22194;50.046;21.954;2022-10-16T14:44:53;18.00;;;7.70;;
36137;SDS011;22194;50.046;21.954;2022-10-16T14:47:25;21.10;;;7.50;;
36137;SDS011;22194;50.046;21.954;2022-10-16T14:49:56;14.00;;;6.80;;
36137;SDS011;22194;50.046;21.954;2022-10-16T14:52:26;16.40;;;6.70;;
36137;SDS011;22194;50.046;21.954;2022-10-16T14:54:54;19.50;;;7.70;;
36137;SDS011;22194;50.046;21.954;2022-10-16T14:57:26;14.90;;;6.00;;
36137;SDS011;22194;50.046;21.954;2022-10-16T15:00:02;16.30;;;7.10;;
36137;SDS011;22194;50.046;21.954;2022-10-16T15:02:53;16.50;;;6.50;;
36137;SDS011;22194;50.046;21.954;2022-10-16T15:05:25;15.50;;;6.80;;
36137;SDS011;22194;50.046;21.954;2022-10-16T15:07:57;18.90;;;6.20;;
36137;SDS011;22194;50.046;21.954;2022-10-16T15:10:25;18.50;;;6.50;;
36137;SDS011;22194;50.046;21.954;2022-10-16T15:12:57;13.90;;;7.10;;
36137;SDS011;22194;50.046;21.954;2022-10-16T15:15:36;14.80;;;6.90;;
36137;SDS011;22194;50.046;21.954;2022-10-16T15:18:09;18.60;;;7.50;;
36137;SDS011;22194;50.046;21.954;2022-10-16T15:20:42;17.60;;;7.60;;
36137;SDS011;22194;50.046;21.954;2022-10-16T15:23:14;17.70;;;7.10;;
36137;SDS011;22194;50.046;21.954;2022-10-16T15:25:51;16.90;;;7.00;;
36137;SDS011;22194;50.046;21.954;2022-10-16T15:28:23;17.10;;;7.40;;
36137;SDS011;22194;50.046;21.954;2022-10-16T15:30:57;17.40;;;7.70;;
36137;SDS011;22194;50.046;21.954;2022-10-16T15:33:26;15.30;;;6.70;;
36137;SDS011;22194;50.046;21.954;2022-10-16T15:36:07;19.10;;;7.20;;
36137;SDS011;22194;50.046;21.954;2022-10-16T15:38:38;15.50;;;7.20;;
36137;SDS011;22194;50.046;21.954;2022-10-16T15:41:06;16.50;;;7.40;;
36137;SDS011;22194;50.046;21.954;2022-10-16T15:43:33;18.00;;;7.80;;
36137;SDS011;22194;50.046;21.954;2022-10-16T15:46:05;19.30;;;9.00;;
36137;SDS011;22194;50.046;21.954;2022-10-16T15:48:38;18.00;;;7.70;;
36137;SDS011;22194;50.046;21.954;2022-10-16T15:51:09;18.20;;;8.30;;
36137;SDS011;22194;50.046;21.954;2022-10-16T15:53:37;19.60;;;8.90;;
36137;SDS011;22194;50.046;21.954;2022-10-16T15:56:05;25.10;;;9.90;;
36137;SDS011;22194;50.046;21.954;2022-10-16T15:58:36;18.40;;;8.30;;
36137;SDS011;22194;50.046;21.954;2022-10-16T16:01:05;19.40;;;7.90;;
36137;SDS011;22194;50.046;21.954;2022-10-16T16:03:37;25.00;;;12.10;;
36137;SDS011;22194;50.046;21.954;2022-10-16T16:06:09;21.40;;;8.50;;
36137;SDS011;22194;50.046;21.954;2022-10-16T16:08:41;20.50;;;8.90;;
36137;SDS011;22194;50.046;21.954;2022-10-16T16:11:10;18.50;;;8.20;;
36137;SDS011;22194;50.046;21.954;2022-10-16T16:13:42;17.80;;;8.00;;
36137;SDS011;22194;50.046;21.954;2022-10-16T16:16:15;17.10;;;7.40;;
36137;SDS011;22194;50.046;21.954;2022-10-16T16:18:47;19.00;;;8.10;;
36137;SDS011;22194;50.046;21.954;2022-10-16T16:21:20;21.60;;;8.30;;
36137;SDS011;22194;50.046;21.954;2022-10-16T16:23:51;18.80;;;8.10;;
36137;SDS011;22194;50.046;21.954;2022-10-16T16:26:22;18.10;;;8.80;;
36137;SDS011;22194;50.046;21.954;2022-10-16T16:28:56;20.80;;;8.60;;